sensor_id;sensor_type;location;lat;lon;timestamp;temperature;humidity
72128;DHT22;60000;51.030;7.024;2023-09-19T00:01:40;15.71;85.66
72128;DHT22;60000;51.030;7.024;2023-09-19T00:04:08;15.67;85.53
72128;DHT22;60000;51.030;7.024;2023-09-19T00:06:35;15.65;85.56
72128;DHT22;60000;51.030;7.024;2023-09-19T00:09:00;15.62;85.49
72128;DHT22;60000;51.030;7.024;2023-09-19T00:11:26;15.60;85.50
72128;DHT22;60000;51.030;7.024;2023-09-19T00:13:52;15.57;85.33
72128;DHT22;60000;51.030;7.024;2023-09-19T00:16:17;15.55;85.36
72128;DHT22;60000;51.030;7.024;2023-09-19T00:18:44;15.55;85.46
72128;DHT22;60000;51.030;7.024;2023-09-19T00:21:09;15.55;85.42
72128;DHT22;60000;51.030;7.024;2023-09-19T00:23:35;15.55;85.23
72128;DHT22;60000;51.030;7.024;2023-09-19T00:26:01;15.54;85.15
72128;DHT22;60000;51.030;7.024;2023-09-19T00:28:29;15.53;85.10
72128;DHT22;60000;51.030;7.024;2023-09-19T00:30:55;15.51;85.12
72128;DHT22;60000;51.030;7.024;2023-09-19T00:33:21;15.50;85.09
72128;DHT22;60000;51.030;7.024;2023-09-19T00:35:54;15.50;85.07
72128;DHT22;60000;51.030;7.024;2023-09-19T00:38:20;15.46;85.16
72128;DHT22;60000;51.030;7.024;2023-09-19T00:40:48;15.43;85.16
72128;DHT22;60000;51.030;7.024;2023-09-19T00:43:14;15.41;85.19
72128;DHT22;60000;51.030;7.024;2023-09-19T00:45:43;15.43;85.30
72128;DHT22;60000;51.030;7.024;2023-09-19T00:48:09;15.39;85.43
72128;DHT22;60000;51.030;7.024;2023-09-19T00:50:35;15.36;85.43
72128;DHT22;60000;51.030;7.024;2023-09-19T00:53:01;15.36;85.62
72128;DHT22;60000;51.030;7.024;2023-09-19T00:55:29;15.36;85.60
72128;DHT22;60000;51.030;7.024;2023-09-19T00:57:56;15.33;85.59
72128;DHT22;60000;51.030;7.024;2023-09-19T01:00:22;15.31;85.72
72128;DHT22;60000;51.030;7.024;2023-09-19T01:02:48;15.29;85.78
72128;DHT22;60000;51.030;7.024;2023-09-19T01:05:14;15.27;85.84
72128;DHT22;60000;51.030;7.024;2023-09-19T01:07:39;15.27;85.89
72128;DHT22;60000;51.030;7.024;2023-09-19T01:10:11;15.29;85.99
72128;DHT22;60000;51.030;7.024;2023-09-19T01:13:18;15.33;85.95
72128;DHT22;60000;51.030;7.024;2023-09-19T01:18:52;15.36;85.77
72128;DHT22;60000;51.030;7.024;2023-09-19T01:24:30;15.37;85.69
72128;DHT22;60000;51.030;7.024;2023-09-19T01:30:10;15.39;85.34
72128;DHT22;60000;51.030;7.024;2023-09-19T01:32:39;15.37;85.27
72128;DHT22;60000;51.030;7.024;2023-09-19T01:35:06;15.36;85.22
72128;DHT22;60000;51.030;7.024;2023-09-19T01:37:31;15.36;85.21
72128;DHT22;60000;51.030;7.024;2023-09-19T01:40:06;15.37;85.24
72128;DHT22;60000;51.030;7.024;2023-09-19T01:48:19;15.30;85.31
72128;DHT22;60000;51.030;7.024;2023-09-19T01:51:08;15.27;85.29
72128;DHT22;60000;51.030;7.024;2023-09-19T01:53:56;15.27;85.32
72128;DHT22;60000;51.030;7.024;2023-09-19T01:59:11;15.29;85.24
72128;DHT22;60000;51.030;7.024;2023-09-19T02:01:39;15.31;84.98
72128;DHT22;60000;51.030;7.024;2023-09-19T02:04:05;15.36;84.69
72128;DHT22;60000;51.030;7.024;2023-09-19T02:06:32;15.40;83.91
72128;DHT22;60000;51.030;7.024;2023-09-19T02:08:59;15.46;83.72
72128;DHT22;60000;51.030;7.024;2023-09-19T02:11:24;15.50;83.47
72128;DHT22;60000;51.030;7.024;2023-09-19T02:13:50;15.50;83.10
72128;DHT22;60000;51.030;7.024;2023-09-19T02:16:19;15.57;82.08
72128;DHT22;60000;51.030;7.024;2023-09-19T02:18:47;15.58;81.59
72128;DHT22;60000;51.030;7.024;2023-09-19T02:21:12;15.58;81.46
72128;DHT22;60000;51.030;7.024;2023-09-19T02:23:38;15.60;80.76
72128;DHT22;60000;51.030;7.024;2023-09-19T02:26:04;15.64;80.37
72128;DHT22;60000;51.030;7.024;2023-09-19T02:28:30;15.65;79.59
72128;DHT22;60000;51.030;7.024;2023-09-19T02:30:57;15.65;79.60
72128;DHT22;60000;51.030;7.024;2023-09-19T02:33:22;15.61;79.66
72128;DHT22;60000;51.030;7.024;2023-09-19T02:35:47;15.62;79.52
72128;DHT22;60000;51.030;7.024;2023-09-19T02:38:13;15.62;79.39
72128;DHT22;60000;51.030;7.024;2023-09-19T02:40:40;15.65;78.64
72128;DHT22;60000;51.030;7.024;2023-09-19T02:43:05;15.64;78.73
72128;DHT22;60000;51.030;7.024;2023-09-19T02:45:31;15.58;78.37
72128;DHT22;60000;51.030;7.024;2023-09-19T02:47:57;15.60;78.40
72128;DHT22;60000;51.030;7.024;2023-09-19T02:50:23;15.55;78.48
72128;DHT22;60000;51.030;7.024;2023-09-19T02:52:48;15.54;78.54
72128;DHT22;60000;51.030;7.024;2023-09-19T02:55:18;15.49;78.63
72128;DHT22;60000;51.030;7.024;2023-09-19T02:57:48;15.55;78.18
72128;DHT22;60000;51.030;7.024;2023-09-19T03:00:15;15.51;78.39
72128;DHT22;60000;51.030;7.024;2023-09-19T03:02:40;15.49;78.49
72128;DHT22;60000;51.030;7.024;2023-09-19T03:05:07;15.49;78.56
72128;DHT22;60000;51.030;7.024;2023-09-19T03:07:33;15.43;78.46
72128;DHT22;60000;51.030;7.024;2023-09-19T03:09:59;15.40;78.70
72128;DHT22;60000;51.030;7.024;2023-09-19T03:12:25;15.39;78.81
72128;DHT22;60000;51.030;7.024;2023-09-19T03:14:51;15.37;78.46
72128;DHT22;60000;51.030;7.024;2023-09-19T03:17:16;15.30;78.56
72128;DHT22;60000;51.030;7.024;2023-09-19T03:19:42;15.27;78.37
72128;DHT22;60000;51.030;7.024;2023-09-19T03:22:07;15.23;78.33
72128;DHT22;60000;51.030;7.024;2023-09-19T03:24:33;15.24;78.65
72128;DHT22;60000;51.030;7.024;2023-09-19T03:26:58;15.14;78.69
72128;DHT22;60000;51.030;7.024;2023-09-19T03:29:24;15.16;78.95
72128;DHT22;60000;51.030;7.024;2023-09-19T03:31:50;15.13;79.12
72128;DHT22;60000;51.030;7.024;2023-09-19T03:34:16;15.10;79.13
72128;DHT22;60000;51.030;7.024;2023-09-19T03:36:42;15.09;79.30
72128;DHT22;60000;51.030;7.024;2023-09-19T03:39:07;15.04;79.56
72128;DHT22;60000;51.030;7.024;2023-09-19T03:41:32;14.99;79.98
72128;DHT22;60000;51.030;7.024;2023-09-19T03:43:58;14.96;80.27
72128;DHT22;60000;51.030;7.024;2023-09-19T03:46:23;14.93;80.58
72128;DHT22;60000;51.030;7.024;2023-09-19T03:48:50;14.92;80.83
72128;DHT22;60000;51.030;7.024;2023-09-19T03:51:15;14.88;80.94
72128;DHT22;60000;51.030;7.024;2023-09-19T03:53:40;14.86;81.12
72128;DHT22;60000;51.030;7.024;2023-09-19T03:56:06;14.83;81.15
72128;DHT22;60000;51.030;7.024;2023-09-19T03:58:31;14.81;81.33
72128;DHT22;60000;51.030;7.024;2023-09-19T04:00:57;14.78;81.57
72128;DHT22;60000;51.030;7.024;2023-09-19T04:03:23;14.76;81.56
72128;DHT22;60000;51.030;7.024;2023-09-19T04:05:49;14.72;81.70
72128;DHT22;60000;51.030;7.024;2023-09-19T04:08:15;14.72;81.89
72128;DHT22;60000;51.030;7.024;2023-09-19T04:10:44;14.71;81.93
72128;DHT22;60000;51.030;7.024;2023-09-19T04:13:10;14.71;82.11
72128;DHT22;60000;51.030;7.024;2023-09-19T04:15:36;14.69;82.36
72128;DHT22;60000;51.030;7.024;2023-09-19T04:18:02;14.65;82.52
72128;DHT22;60000;51.030;7.024;2023-09-19T04:20:28;14.65;82.64
72128;DHT22;60000;51.030;7.024;2023-09-19T04:22:54;14.61;82.66
72128;DHT22;60000;51.030;7.024;2023-09-19T04:25:20;14.60;82.85
72128;DHT22;60000;51.030;7.024;2023-09-19T04:27:45;14.55;82.93
72128;DHT22;60000;51.030;7.024;2023-09-19T04:30:11;14.54;83.03
72128;DHT22;60000;51.030;7.024;2023-09-19T04:32:38;14.52;83.20
72128;DHT22;60000;51.030;7.024;2023-09-19T04:35:07;14.49;83.22
72128;DHT22;60000;51.030;7.024;2023-09-19T04:37:36;14.46;83.23
72128;DHT22;60000;51.030;7.024;2023-09-19T04:40:01;14.45;83.28
72128;DHT22;60000;51.030;7.024;2023-09-19T04:42:29;14.42;83.22
72128;DHT22;60000;51.030;7.024;2023-09-19T04:44:55;14.42;83.19
72128;DHT22;60000;51.030;7.024;2023-09-19T04:47:20;14.44;83.13
72128;DHT22;60000;51.030;7.024;2023-09-19T04:49:47;14.41;82.96
72128;DHT22;60000;51.030;7.024;2023-09-19T04:52:12;14.40;82.94
72128;DHT22;60000;51.030;7.024;2023-09-19T04:54:40;14.40;82.85
72128;DHT22;60000;51.030;7.024;2023-09-19T04:57:06;14.38;82.76
72128;DHT22;60000;51.030;7.024;2023-09-19T04:59:32;14.35;82.61
72128;DHT22;60000;51.030;7.024;2023-09-19T05:01:57;14.38;82.51
72128;DHT22;60000;51.030;7.024;2023-09-19T05:04:22;14.33;82.36
72128;DHT22;60000;51.030;7.024;2023-09-19T05:06:47;14.33;82.27
72128;DHT22;60000;51.030;7.024;2023-09-19T05:09:13;14.31;82.24
72128;DHT22;60000;51.030;7.024;2023-09-19T05:11:38;14.31;82.04
72128;DHT22;60000;51.030;7.024;2023-09-19T05:14:04;14.35;81.95
72128;DHT22;60000;51.030;7.024;2023-09-19T05:16:29;14.33;81.83
72128;DHT22;60000;51.030;7.024;2023-09-19T05:18:57;14.35;81.59
72128;DHT22;60000;51.030;7.024;2023-09-19T05:21:25;14.33;81.50
72128;DHT22;60000;51.030;7.024;2023-09-19T05:23:51;14.31;81.44
72128;DHT22;60000;51.030;7.024;2023-09-19T05:26:17;14.31;81.29
72128;DHT22;60000;51.030;7.024;2023-09-19T05:28:43;14.31;81.15
72128;DHT22;60000;51.030;7.024;2023-09-19T05:31:08;14.31;80.93
72128;DHT22;60000;51.030;7.024;2023-09-19T05:33:33;14.35;80.81
72128;DHT22;60000;51.030;7.024;2023-09-19T05:35:59;14.42;80.48
72128;DHT22;60000;51.030;7.024;2023-09-19T05:38:24;14.41;80.24
72128;DHT22;60000;51.030;7.024;2023-09-19T05:40:52;14.44;80.17
72128;DHT22;60000;51.030;7.024;2023-09-19T05:43:17;14.46;80.05
72128;DHT22;60000;51.030;7.024;2023-09-19T05:45:43;14.49;80.27
72128;DHT22;60000;51.030;7.024;2023-09-19T05:48:11;14.52;80.28
72128;DHT22;60000;51.030;7.024;2023-09-19T05:50:38;14.55;80.19
72128;DHT22;60000;51.030;7.024;2023-09-19T05:53:03;14.55;79.83
72128;DHT22;60000;51.030;7.024;2023-09-19T05:55:32;14.60;79.54
72128;DHT22;60000;51.030;7.024;2023-09-19T05:57:58;14.61;79.27
72128;DHT22;60000;51.030;7.024;2023-09-19T06:00:24;14.67;79.16
72128;DHT22;60000;51.030;7.024;2023-09-19T06:02:53;14.69;79.04
72128;DHT22;60000;51.030;7.024;2023-09-19T06:05:19;14.72;78.88
72128;DHT22;60000;51.030;7.024;2023-09-19T06:07:45;14.78;78.76
72128;DHT22;60000;51.030;7.024;2023-09-19T06:10:10;14.81;78.57
72128;DHT22;60000;51.030;7.024;2023-09-19T06:12:42;14.83;78.55
72128;DHT22;60000;51.030;7.024;2023-09-19T06:15:11;14.86;78.38
72128;DHT22;60000;51.030;7.024;2023-09-19T06:17:54;14.88;78.04
72128;DHT22;60000;51.030;7.024;2023-09-19T06:20:23;14.91;78.11
72128;DHT22;60000;51.030;7.024;2023-09-19T06:22:49;14.92;77.87
72128;DHT22;60000;51.030;7.024;2023-09-19T06:25:15;14.95;77.99
72128;DHT22;60000;51.030;7.024;2023-09-19T06:27:42;15.00;78.19
72128;DHT22;60000;51.030;7.024;2023-09-19T06:30:10;15.02;77.98
72128;DHT22;60000;51.030;7.024;2023-09-19T06:32:36;15.03;78.12
72128;DHT22;60000;51.030;7.024;2023-09-19T06:35:02;15.07;77.85
72128;DHT22;60000;51.030;7.024;2023-09-19T06:37:32;15.10;78.01
72128;DHT22;60000;51.030;7.024;2023-09-19T06:39:59;15.18;78.08
72128;DHT22;60000;51.030;7.024;2023-09-19T06:42:25;15.20;78.07
72128;DHT22;60000;51.030;7.024;2023-09-19T06:44:50;15.24;77.93
72128;DHT22;60000;51.030;7.024;2023-09-19T06:47:16;15.23;77.69
72128;DHT22;60000;51.030;7.024;2023-09-19T06:49:41;15.24;77.27
72128;DHT22;60000;51.030;7.024;2023-09-19T06:52:09;15.29;77.13
72128;DHT22;60000;51.030;7.024;2023-09-19T06:54:34;15.30;76.99
72128;DHT22;60000;51.030;7.024;2023-09-19T06:57:01;15.37;77.11
72128;DHT22;60000;51.030;7.024;2023-09-19T06:59:26;15.39;76.82
72128;DHT22;60000;51.030;7.024;2023-09-19T07:01:51;15.44;76.91
72128;DHT22;60000;51.030;7.024;2023-09-19T07:04:17;15.50;76.55
72128;DHT22;60000;51.030;7.024;2023-09-19T07:06:48;15.55;75.98
72128;DHT22;60000;51.030;7.024;2023-09-19T07:09:15;15.62;76.03
72128;DHT22;60000;51.030;7.024;2023-09-19T07:11:40;15.64;75.75
72128;DHT22;60000;51.030;7.024;2023-09-19T07:14:05;15.67;75.35
72128;DHT22;60000;51.030;7.024;2023-09-19T07:16:31;15.70;75.29
72128;DHT22;60000;51.030;7.024;2023-09-19T07:18:56;15.78;75.27
72128;DHT22;60000;51.030;7.024;2023-09-19T07:21:23;15.82;75.16
72128;DHT22;60000;51.030;7.024;2023-09-19T07:23:48;15.85;74.92
72128;DHT22;60000;51.030;7.024;2023-09-19T07:26:15;15.90;74.74
72128;DHT22;60000;51.030;7.024;2023-09-19T07:28:40;15.91;74.41
72128;DHT22;60000;51.030;7.024;2023-09-19T07:31:05;15.97;74.72
72128;DHT22;60000;51.030;7.024;2023-09-19T07:33:34;16.02;74.33
72128;DHT22;60000;51.030;7.024;2023-09-19T07:35:59;16.11;74.65
72128;DHT22;60000;51.030;7.024;2023-09-19T07:38:25;16.15;74.48
72128;DHT22;60000;51.030;7.024;2023-09-19T07:40:52;16.28;74.40
72128;DHT22;60000;51.030;7.024;2023-09-19T07:43:17;16.34;73.55
72128;DHT22;60000;51.030;7.024;2023-09-19T07:45:43;16.38;73.40
72128;DHT22;60000;51.030;7.024;2023-09-19T07:48:11;16.53;73.36
72128;DHT22;60000;51.030;7.024;2023-09-19T07:50:40;16.56;72.92
72128;DHT22;60000;51.030;7.024;2023-09-19T07:53:08;16.69;72.89
72128;DHT22;60000;51.030;7.024;2023-09-19T07:55:33;16.76;72.13
72128;DHT22;60000;51.030;7.024;2023-09-19T07:57:59;16.88;71.98
72128;DHT22;60000;51.030;7.024;2023-09-19T08:00:24;16.97;71.43
72128;DHT22;60000;51.030;7.024;2023-09-19T08:02:49;17.12;71.36
72128;DHT22;60000;51.030;7.024;2023-09-19T08:05:17;17.27;71.66
72128;DHT22;60000;51.030;7.024;2023-09-19T08:07:44;17.45;70.95
72128;DHT22;60000;51.030;7.024;2023-09-19T08:10:14;17.56;70.79
72128;DHT22;60000;51.030;7.024;2023-09-19T08:12:43;17.68;69.67
72128;DHT22;60000;51.030;7.024;2023-09-19T08:15:13;17.79;69.38
72128;DHT22;60000;51.030;7.024;2023-09-19T08:17:39;17.86;68.96
72128;DHT22;60000;51.030;7.024;2023-09-19T08:20:05;17.94;68.78
72128;DHT22;60000;51.030;7.024;2023-09-19T08:22:31;18.03;67.88
72128;DHT22;60000;51.030;7.024;2023-09-19T08:24:57;18.04;68.31
72128;DHT22;60000;51.030;7.024;2023-09-19T08:27:23;18.00;67.32
72128;DHT22;60000;51.030;7.024;2023-09-19T08:29:52;18.01;67.03
72128;DHT22;60000;51.030;7.024;2023-09-19T08:32:17;18.10;67.39
72128;DHT22;60000;51.030;7.024;2023-09-19T08:34:45;18.23;67.51
72128;DHT22;60000;51.030;7.024;2023-09-19T08:37:10;18.26;66.86
72128;DHT22;60000;51.030;7.024;2023-09-19T08:39:35;18.24;66.07
72128;DHT22;60000;51.030;7.024;2023-09-19T08:42:02;18.20;66.14
72128;DHT22;60000;51.030;7.024;2023-09-19T08:44:28;18.27;66.48
72128;DHT22;60000;51.030;7.024;2023-09-19T08:47:09;18.34;66.08
72128;DHT22;60000;51.030;7.024;2023-09-19T08:50:25;18.41;66.14
72128;DHT22;60000;51.030;7.024;2023-09-19T08:52:52;18.44;65.28
72128;DHT22;60000;51.030;7.024;2023-09-19T08:55:31;18.52;65.38
72128;DHT22;60000;51.030;7.024;2023-09-19T08:58:03;18.65;65.24
72128;DHT22;60000;51.030;7.024;2023-09-19T09:00:32;18.79;64.86
72128;DHT22;60000;51.030;7.024;2023-09-19T09:03:01;18.89;64.15
72128;DHT22;60000;51.030;7.024;2023-09-19T09:05:28;18.94;62.95
72128;DHT22;60000;51.030;7.024;2023-09-19T09:07:56;19.02;62.65
72128;DHT22;60000;51.030;7.024;2023-09-19T09:10:24;19.10;61.22
72128;DHT22;60000;51.030;7.024;2023-09-19T09:12:51;19.17;61.30
72128;DHT22;60000;51.030;7.024;2023-09-19T09:15:19;19.36;61.15
72128;DHT22;60000;51.030;7.024;2023-09-19T09:17:47;19.50;61.34
72128;DHT22;60000;51.030;7.024;2023-09-19T09:20:17;19.67;60.09
72128;DHT22;60000;51.030;7.024;2023-09-19T09:22:57;19.91;60.29
72128;DHT22;60000;51.030;7.024;2023-09-19T09:25:51;20.18;59.57
72128;DHT22;60000;51.030;7.024;2023-09-19T09:28:26;20.49;59.33
72128;DHT22;60000;51.030;7.024;2023-09-19T09:30:54;20.74;58.60
72128;DHT22;60000;51.030;7.024;2023-09-19T09:33:19;20.76;54.82
72128;DHT22;60000;51.030;7.024;2023-09-19T09:35:56;20.70;54.26
72128;DHT22;60000;51.030;7.024;2023-09-19T09:38:24;20.66;54.71
72128;DHT22;60000;51.030;7.024;2023-09-19T09:40:56;20.69;55.21
72128;DHT22;60000;51.030;7.024;2023-09-19T09:43:35;20.85;55.08
72128;DHT22;60000;51.030;7.024;2023-09-19T09:46:09;20.94;54.82
72128;DHT22;60000;51.030;7.024;2023-09-19T09:48:45;20.98;53.19
72128;DHT22;60000;51.030;7.024;2023-09-19T09:51:49;21.00;52.03
72128;DHT22;60000;51.030;7.024;2023-09-19T09:54:25;21.15;53.40
72128;DHT22;60000;51.030;7.024;2023-09-19T09:57:09;21.32;53.95
72128;DHT22;60000;51.030;7.024;2023-09-19T10:02:39;21.51;52.36
72128;DHT22;60000;51.030;7.024;2023-09-19T10:05:20;21.58;52.57
72128;DHT22;60000;51.030;7.024;2023-09-19T10:07:49;21.56;51.83
72128;DHT22;60000;51.030;7.024;2023-09-19T10:10:32;21.43;50.98
72128;DHT22;60000;51.030;7.024;2023-09-19T10:13:11;21.18;51.27
72128;DHT22;60000;51.030;7.024;2023-09-19T10:15:46;21.15;50.63
72128;DHT22;60000;51.030;7.024;2023-09-19T10:18:21;21.14;51.16
72128;DHT22;60000;51.030;7.024;2023-09-19T10:20:47;21.17;51.47
72128;DHT22;60000;51.030;7.024;2023-09-19T10:23:15;21.25;51.91
72128;DHT22;60000;51.030;7.024;2023-09-19T10:25:48;21.43;51.69
72128;DHT22;60000;51.030;7.024;2023-09-19T10:28:14;21.65;51.90
72128;DHT22;60000;51.030;7.024;2023-09-19T10:30:44;21.85;52.60
72128;DHT22;60000;51.030;7.024;2023-09-19T10:33:13;21.92;50.71
72128;DHT22;60000;51.030;7.024;2023-09-19T10:35:42;21.85;48.87
72128;DHT22;60000;51.030;7.024;2023-09-19T10:38:10;21.59;49.47
72128;DHT22;60000;51.030;7.024;2023-09-19T10:40:38;21.24;49.67
72128;DHT22;60000;51.030;7.024;2023-09-19T10:43:11;21.17;50.93
72128;DHT22;60000;51.030;7.024;2023-09-19T10:45:38;20.95;51.08
72128;DHT22;60000;51.030;7.024;2023-09-19T10:48:05;20.84;50.99
72128;DHT22;60000;51.030;7.024;2023-09-19T10:50:55;20.67;52.18
72128;DHT22;60000;51.030;7.024;2023-09-19T10:53:25;20.63;53.20
72128;DHT22;60000;51.030;7.024;2023-09-19T10:55:54;20.67;52.92
72128;DHT22;60000;51.030;7.024;2023-09-19T10:58:28;20.72;53.82
72128;DHT22;60000;51.030;7.024;2023-09-19T11:00:58;21.00;54.33
72128;DHT22;60000;51.030;7.024;2023-09-19T11:03:33;21.18;53.02
72128;DHT22;60000;51.030;7.024;2023-09-19T11:06:07;21.43;52.93
72128;DHT22;60000;51.030;7.024;2023-09-19T11:11:50;21.69;51.46
72128;DHT22;60000;51.030;7.024;2023-09-19T11:30:39;21.15;52.11
72128;DHT22;60000;51.030;7.024;2023-09-19T11:33:19;21.03;51.81
72128;DHT22;60000;51.030;7.024;2023-09-19T11:36:05;20.85;52.48
72128;DHT22;60000;51.030;7.024;2023-09-19T11:46:17;20.50;54.05
72128;DHT22;60000;51.030;7.024;2023-09-19T11:48:47;20.45;53.93
72128;DHT22;60000;51.030;7.024;2023-09-19T11:51:14;20.46;54.05
72128;DHT22;60000;51.030;7.024;2023-09-19T11:53:45;20.56;53.45
72128;DHT22;60000;51.030;7.024;2023-09-19T11:56:15;20.57;53.03
72128;DHT22;60000;51.030;7.024;2023-09-19T11:58:41;20.63;52.48
72128;DHT22;60000;51.030;7.024;2023-09-19T12:01:07;20.64;52.20
72128;DHT22;60000;51.030;7.024;2023-09-19T12:03:42;20.69;52.74
72128;DHT22;60000;51.030;7.024;2023-09-19T12:06:11;20.70;52.11
72128;DHT22;60000;51.030;7.024;2023-09-19T12:08:43;20.67;52.79
72128;DHT22;60000;51.030;7.024;2023-09-19T12:11:13;20.63;52.63
72128;DHT22;60000;51.030;7.024;2023-09-19T12:13:44;20.50;52.74
72128;DHT22;60000;51.030;7.024;2023-09-19T12:16:17;20.54;52.89
72128;DHT22;60000;51.030;7.024;2023-09-19T12:18:45;20.64;53.37
72128;DHT22;60000;51.030;7.024;2023-09-19T12:21:26;20.76;52.32
72128;DHT22;60000;51.030;7.024;2023-09-19T12:26:30;20.88;50.83
72128;DHT22;60000;51.030;7.024;2023-09-19T12:28:59;20.97;50.37
72128;DHT22;60000;51.030;7.024;2023-09-19T12:31:24;21.04;49.58
72128;DHT22;60000;51.030;7.024;2023-09-19T12:33:55;21.08;49.20
72128;DHT22;60000;51.030;7.024;2023-09-19T12:36:23;21.00;48.86
72128;DHT22;60000;51.030;7.024;2023-09-19T12:38:50;20.97;49.45
72128;DHT22;60000;51.030;7.024;2023-09-19T12:41:18;21.00;49.53
72128;DHT22;60000;51.030;7.024;2023-09-19T12:43:44;21.07;49.85
72128;DHT22;60000;51.030;7.024;2023-09-19T12:46:09;21.11;49.88
72128;DHT22;60000;51.030;7.024;2023-09-19T12:48:35;21.15;49.77
72128;DHT22;60000;51.030;7.024;2023-09-19T12:51:06;21.21;49.27
72128;DHT22;60000;51.030;7.024;2023-09-19T12:53:37;21.24;49.10
72128;DHT22;60000;51.030;7.024;2023-09-19T12:56:05;21.31;49.13
72128;DHT22;60000;51.030;7.024;2023-09-19T12:58:33;21.30;47.96
72128;DHT22;60000;51.030;7.024;2023-09-19T13:01:00;21.25;48.65
72128;DHT22;60000;51.030;7.024;2023-09-19T13:03:27;21.21;49.05
72128;DHT22;60000;51.030;7.024;2023-09-19T13:06:01;21.27;48.40
72128;DHT22;60000;51.030;7.024;2023-09-19T13:08:40;21.18;48.84
72128;DHT22;60000;51.030;7.024;2023-09-19T13:13:47;21.22;48.72
72128;DHT22;60000;51.030;7.024;2023-09-19T13:16:14;21.24;48.24
72128;DHT22;60000;51.030;7.024;2023-09-19T13:18:50;21.27;48.32
72128;DHT22;60000;51.030;7.024;2023-09-19T13:23:54;21.42;48.78
72128;DHT22;60000;51.030;7.024;2023-09-19T13:26:27;21.52;49.44
72128;DHT22;60000;51.030;7.024;2023-09-19T13:28:53;21.43;48.30
72128;DHT22;60000;51.030;7.024;2023-09-19T13:31:19;21.51;48.74
72128;DHT22;60000;51.030;7.024;2023-09-19T13:33:45;21.53;48.24
72128;DHT22;60000;51.030;7.024;2023-09-19T13:36:11;21.62;47.39
72128;DHT22;60000;51.030;7.024;2023-09-19T13:38:38;21.58;47.62
72128;DHT22;60000;51.030;7.024;2023-09-19T13:41:03;21.56;47.80
72128;DHT22;60000;51.030;7.024;2023-09-19T13:43:29;21.52;48.35
72128;DHT22;60000;51.030;7.024;2023-09-19T13:45:54;21.52;48.60
72128;DHT22;60000;51.030;7.024;2023-09-19T13:48:20;21.56;49.10
72128;DHT22;60000;51.030;7.024;2023-09-19T13:50:48;21.56;49.36
72128;DHT22;60000;51.030;7.024;2023-09-19T13:53:13;21.58;49.34
72128;DHT22;60000;51.030;7.024;2023-09-19T13:55:39;21.62;49.35
72128;DHT22;60000;51.030;7.024;2023-09-19T13:58:05;21.67;49.19
72128;DHT22;60000;51.030;7.024;2023-09-19T14:00:32;21.61;48.96
72128;DHT22;60000;51.030;7.024;2023-09-19T14:02:59;21.65;49.33
72128;DHT22;60000;51.030;7.024;2023-09-19T14:05:26;21.58;49.28
72128;DHT22;60000;51.030;7.024;2023-09-19T14:07:53;21.56;48.91
72128;DHT22;60000;51.030;7.024;2023-09-19T14:10:19;21.63;49.01
72128;DHT22;60000;51.030;7.024;2023-09-19T14:12:45;21.59;49.36
72128;DHT22;60000;51.030;7.024;2023-09-19T14:15:11;21.53;49.83
72128;DHT22;60000;51.030;7.024;2023-09-19T14:17:38;21.43;49.94
72128;DHT22;60000;51.030;7.024;2023-09-19T14:20:04;21.35;49.98
72128;DHT22;60000;51.030;7.024;2023-09-19T14:22:31;21.22;50.37
72128;DHT22;60000;51.030;7.024;2023-09-19T14:24:56;21.17;50.79
72128;DHT22;60000;51.030;7.024;2023-09-19T14:27:22;21.10;50.74
72128;DHT22;60000;51.030;7.024;2023-09-19T14:29:47;21.05;51.08
72128;DHT22;60000;51.030;7.024;2023-09-19T14:32:13;21.04;51.41
72128;DHT22;60000;51.030;7.024;2023-09-19T14:34:38;20.94;51.46
72128;DHT22;60000;51.030;7.024;2023-09-19T14:37:07;20.84;51.47
72128;DHT22;60000;51.030;7.024;2023-09-19T14:39:33;20.79;51.76
72128;DHT22;60000;51.030;7.024;2023-09-19T14:41:58;20.77;52.45
72128;DHT22;60000;51.030;7.024;2023-09-19T14:44:23;20.81;52.66
72128;DHT22;60000;51.030;7.024;2023-09-19T14:46:49;20.80;52.55
72128;DHT22;60000;51.030;7.024;2023-09-19T14:49:14;20.84;52.57
72128;DHT22;60000;51.030;7.024;2023-09-19T14:51:41;20.79;52.42
72128;DHT22;60000;51.030;7.024;2023-09-19T14:54:09;20.79;52.52
72128;DHT22;60000;51.030;7.024;2023-09-19T14:56:34;20.79;52.52
72128;DHT22;60000;51.030;7.024;2023-09-19T14:58:59;20.77;52.95
72128;DHT22;60000;51.030;7.024;2023-09-19T15:01:25;20.79;53.13
72128;DHT22;60000;51.030;7.024;2023-09-19T15:03:50;20.90;53.18
72128;DHT22;60000;51.030;7.024;2023-09-19T15:06:15;20.94;52.96
72128;DHT22;60000;51.030;7.024;2023-09-19T15:08:43;20.94;52.70
72128;DHT22;60000;51.030;7.024;2023-09-19T15:11:17;20.93;52.47
72128;DHT22;60000;51.030;7.024;2023-09-19T15:13:43;20.85;52.98
72128;DHT22;60000;51.030;7.024;2023-09-19T15:16:09;20.77;53.50
72128;DHT22;60000;51.030;7.024;2023-09-19T15:18:36;20.70;53.61
72128;DHT22;60000;51.030;7.024;2023-09-19T15:21:10;20.60;53.78
72128;DHT22;60000;51.030;7.024;2023-09-19T15:23:36;20.54;54.21
72128;DHT22;60000;51.030;7.024;2023-09-19T15:26:06;20.47;53.82
72128;DHT22;60000;51.030;7.024;2023-09-19T15:28:32;20.39;53.69
72128;DHT22;60000;51.030;7.024;2023-09-19T15:31:05;20.30;53.83
72128;DHT22;60000;51.030;7.024;2023-09-19T15:33:31;20.26;54.10
72128;DHT22;60000;51.030;7.024;2023-09-19T15:36:11;20.25;54.02
72128;DHT22;60000;51.030;7.024;2023-09-19T15:39:08;20.18;54.47
72128;DHT22;60000;51.030;7.024;2023-09-19T15:41:40;20.15;54.29
72128;DHT22;60000;51.030;7.024;2023-09-19T15:44:14;20.14;54.57
72128;DHT22;60000;51.030;7.024;2023-09-19T15:46:41;20.14;54.54
72128;DHT22;60000;51.030;7.024;2023-09-19T15:49:06;20.14;54.76
72128;DHT22;60000;51.030;7.024;2023-09-19T15:51:32;20.14;54.52
72128;DHT22;60000;51.030;7.024;2023-09-19T15:53:58;20.11;54.76
72128;DHT22;60000;51.030;7.024;2023-09-19T15:56:25;20.09;54.96
72128;DHT22;60000;51.030;7.024;2023-09-19T15:58:51;20.09;54.44
72128;DHT22;60000;51.030;7.024;2023-09-19T16:01:18;20.08;54.60
72128;DHT22;60000;51.030;7.024;2023-09-19T16:03:46;20.09;53.96
72128;DHT22;60000;51.030;7.024;2023-09-19T16:06:13;20.06;54.35
72128;DHT22;60000;51.030;7.024;2023-09-19T16:08:44;20.05;54.35
72128;DHT22;60000;51.030;7.024;2023-09-19T16:11:10;20.04;54.64
72128;DHT22;60000;51.030;7.024;2023-09-19T16:13:38;20.04;54.86
72128;DHT22;60000;51.030;7.024;2023-09-19T16:16:04;20.02;54.50
72128;DHT22;60000;51.030;7.024;2023-09-19T16:18:30;20.01;54.87
72128;DHT22;60000;51.030;7.024;2023-09-19T16:21:04;19.99;55.33
72128;DHT22;60000;51.030;7.024;2023-09-19T16:23:30;19.98;55.25
72128;DHT22;60000;51.030;7.024;2023-09-19T16:26:07;19.99;55.56
72128;DHT22;60000;51.030;7.024;2023-09-19T16:28:35;19.96;55.31
72128;DHT22;60000;51.030;7.024;2023-09-19T16:31:05;19.94;55.22
72128;DHT22;60000;51.030;7.024;2023-09-19T16:33:36;19.89;55.40